sensor_id;sensor_type;location;lat;lon;timestamp;P1;durP1;ratioP1;P2;durP2;ratioP2
75429;SDS011;64127;51.488;5.462;2022-12-29T00:02:09;1.87;;;1.60;;
75429;SDS011;64127;51.488;5.462;2022-12-29T00:04:42;1.37;;;1.27;;
75429;SDS011;64127;51.488;5.462;2022-12-29T00:07:15;2.10;;;1.07;;
75429;SDS011;64127;51.488;5.462;2022-12-29T00:09:48;0.93;;;0.87;;
75429;SDS011;64127;51.488;5.462;2022-12-29T00:12:20;1.60;;;0.97;;
75429;SDS011;64127;51.488;5.462;2022-12-29T00:14:52;1.03;;;0.90;;
75429;SDS011;64127;51.488;5.462;2022-12-29T00:17:42;0.80;;;0.80;;
75429;SDS011;64127;51.488;5.462;2022-12-29T00:20:14;2.30;;;0.90;;
75429;SDS011;64127;51.488;5.462;2022-12-29T00:23:05;1.23;;;0.90;;
75429;SDS011;64127;51.488;5.462;2022-12-29T00:25:58;1.53;;;1.00;;
75429;SDS011;64127;51.488;5.462;2022-12-29T00:28:53;1.07;;;0.90;;
75429;SDS011;64127;51.488;5.462;2022-12-29T00:31:44;1.17;;;0.80;;
75429;SDS011;64127;51.488;5.462;2022-12-29T00:34:34;1.30;;;0.87;;
75429;SDS011;64127;51.488;5.462;2022-12-29T00:37:32;1.67;;;1.10;;
75429;SDS011;64127;51.488;5.462;2022-12-29T00:40:24;1.20;;;1.10;;
75429;SDS011;64127;51.488;5.462;2022-12-29T00:43:15;1.30;;;1.20;;
75429;SDS011;64127;51.488;5.462;2022-12-29T00:46:06;1.87;;;1.73;;
75429;SDS011;64127;51.488;5.462;2022-12-29T00:48:38;2.30;;;1.80;;
75429;SDS011;64127;51.488;5.462;2022-12-29T00:51:28;2.23;;;2.03;;
75429;SDS011;64127;51.488;5.462;2022-12-29T00:54:00;3.07;;;2.50;;
75429;SDS011;64127;51.488;5.462;2022-12-29T00:56:32;2.83;;;2.50;;
75429;SDS011;64127;51.488;5.462;2022-12-29T00:59:05;2.80;;;2.60;;
75429;SDS011;64127;51.488;5.462;2022-12-29T01:01:40;2.63;;;2.40;;
75429;SDS011;64127;51.488;5.462;2022-12-29T01:04:13;2.60;;;2.40;;
75429;SDS011;64127;51.488;5.462;2022-12-29T01:06:45;2.30;;;2.10;;
75429;SDS011;64127;51.488;5.462;2022-12-29T01:09:18;2.57;;;2.20;;
75429;SDS011;64127;51.488;5.462;2022-12-29T01:12:09;2.30;;;2.10;;
75429;SDS011;64127;51.488;5.462;2022-12-29T01:14:42;2.10;;;1.90;;
75429;SDS011;64127;51.488;5.462;2022-12-29T01:17:14;1.83;;;1.70;;
75429;SDS011;64127;51.488;5.462;2022-12-29T01:19:45;1.77;;;1.50;;
75429;SDS011;64127;51.488;5.462;2022-12-29T01:22:17;1.80;;;1.70;;
75429;SDS011;64127;51.488;5.462;2022-12-29T01:24:49;1.63;;;1.53;;
75429;SDS011;64127;51.488;5.462;2022-12-29T01:27:21;1.50;;;1.40;;
75429;SDS011;64127;51.488;5.462;2022-12-29T01:29:53;1.70;;;1.60;;
75429;SDS011;64127;51.488;5.462;2022-12-29T01:32:26;1.50;;;1.40;;
75429;SDS011;64127;51.488;5.462;2022-12-29T01:34:57;1.80;;;1.50;;
75429;SDS011;64127;51.488;5.462;2022-12-29T01:37:29;1.37;;;1.17;;
75429;SDS011;64127;51.488;5.462;2022-12-29T01:40:01;1.40;;;1.30;;
75429;SDS011;64127;51.488;5.462;2022-12-29T01:42:34;1.57;;;1.13;;
75429;SDS011;64127;51.488;5.462;2022-12-29T01:45:10;1.73;;;1.30;;
75429;SDS011;64127;51.488;5.462;2022-12-29T01:47:45;2.97;;;1.17;;
75429;SDS011;64127;51.488;5.462;2022-12-29T01:50:26;1.40;;;1.00;;
75429;SDS011;64127;51.488;5.462;2022-12-29T01:53:11;1.63;;;1.17;;
75429;SDS011;64127;51.488;5.462;2022-12-29T01:56:07;2.27;;;1.00;;
75429;SDS011;64127;51.488;5.462;2022-12-29T01:58:43;1.90;;;1.20;;
75429;SDS011;64127;51.488;5.462;2022-12-29T02:01:19;2.70;;;1.10;;
75429;SDS011;64127;51.488;5.462;2022-12-29T02:03:53;2.57;;;1.03;;
75429;SDS011;64127;51.488;5.462;2022-12-29T02:06:27;1.10;;;0.90;;
75429;SDS011;64127;51.488;5.462;2022-12-29T02:09:05;1.50;;;1.20;;
75429;SDS011;64127;51.488;5.462;2022-12-29T02:11:37;3.80;;;1.13;;
75429;SDS011;64127;51.488;5.462;2022-12-29T02:14:12;2.67;;;1.17;;
75429;SDS011;64127;51.488;5.462;2022-12-29T02:23:37;1.83;;;1.10;;
75429;SDS011;64127;51.488;5.462;2022-12-29T02:29:27;2.13;;;1.50;;
75429;SDS011;64127;51.488;5.462;2022-12-29T02:41:19;3.07;;;1.20;;
75429;SDS011;64127;51.488;5.462;2022-12-29T02:44:25;1.53;;;1.00;;
75429;SDS011;64127;51.488;5.462;2022-12-29T02:47:35;1.87;;;1.10;;
75429;SDS011;64127;51.488;5.462;2022-12-29T02:50:36;2.27;;;1.10;;
75429;SDS011;64127;51.488;5.462;2022-12-29T02:53:15;2.20;;;1.00;;
75429;SDS011;64127;51.488;5.462;2022-12-29T02:56:10;3.63;;;1.13;;
75429;SDS011;64127;51.488;5.462;2022-12-29T02:58:42;1.30;;;1.20;;
75429;SDS011;64127;51.488;5.462;2022-12-29T03:04:50;1.93;;;0.83;;
75429;SDS011;64127;51.488;5.462;2022-12-29T03:22:10;4.23;;;1.20;;
75429;SDS011;64127;51.488;5.462;2022-12-29T03:25:00;1.93;;;0.80;;
75429;SDS011;64127;51.488;5.462;2022-12-29T03:27:50;1.40;;;1.03;;
75429;SDS011;64127;51.488;5.462;2022-12-29T03:30:28;3.17;;;1.10;;
75429;SDS011;64127;51.488;5.462;2022-12-29T03:33:04;1.30;;;0.90;;
75429;SDS011;64127;51.488;5.462;2022-12-29T03:35:43;1.20;;;0.90;;
75429;SDS011;64127;51.488;5.462;2022-12-29T03:38:24;1.50;;;0.87;;
75429;SDS011;64127;51.488;5.462;2022-12-29T03:41:08;1.60;;;1.20;;
75429;SDS011;64127;51.488;5.462;2022-12-29T03:43:48;1.43;;;0.87;;
75429;SDS011;64127;51.488;5.462;2022-12-29T03:46:20;1.53;;;1.00;;
75429;SDS011;64127;51.488;5.462;2022-12-29T03:48:52;1.50;;;1.10;;
75429;SDS011;64127;51.488;5.462;2022-12-29T03:51:24;1.77;;;1.20;;
75429;SDS011;64127;51.488;5.462;2022-12-29T03:53:56;2.53;;;1.20;;
75429;SDS011;64127;51.488;5.462;2022-12-29T03:56:28;2.47;;;1.20;;
75429;SDS011;64127;51.488;5.462;2022-12-29T03:59:00;3.23;;;1.13;;
75429;SDS011;64127;51.488;5.462;2022-12-29T04:01:32;2.07;;;1.17;;
75429;SDS011;64127;51.488;5.462;2022-12-29T04:04:04;2.17;;;1.10;;
75429;SDS011;64127;51.488;5.462;2022-12-29T04:06:36;1.63;;;1.10;;
75429;SDS011;64127;51.488;5.462;2022-12-29T04:09:09;3.40;;;1.20;;
75429;SDS011;64127;51.488;5.462;2022-12-29T04:11:42;3.20;;;1.40;;
75429;SDS011;64127;51.488;5.462;2022-12-29T04:14:14;3.07;;;1.20;;
75429;SDS011;64127;51.488;5.462;2022-12-29T04:16:48;1.90;;;1.00;;
75429;SDS011;64127;51.488;5.462;2022-12-29T04:19:20;2.70;;;1.07;;
75429;SDS011;64127;51.488;5.462;2022-12-29T04:21:52;2.80;;;1.23;;
75429;SDS011;64127;51.488;5.462;2022-12-29T04:24:24;2.23;;;1.20;;
75429;SDS011;64127;51.488;5.462;2022-12-29T04:26:56;2.03;;;1.03;;
75429;SDS011;64127;51.488;5.462;2022-12-29T04:29:28;1.93;;;0.93;;
75429;SDS011;64127;51.488;5.462;2022-12-29T04:32:00;2.37;;;1.03;;
75429;SDS011;64127;51.488;5.462;2022-12-29T04:34:32;2.67;;;1.07;;
75429;SDS011;64127;51.488;5.462;2022-12-29T04:37:04;2.40;;;1.20;;
75429;SDS011;64127;51.488;5.462;2022-12-29T04:39:36;2.53;;;1.10;;
75429;SDS011;64127;51.488;5.462;2022-12-29T04:42:08;3.07;;;1.07;;
75429;SDS011;64127;51.488;5.462;2022-12-29T04:44:40;1.70;;;0.90;;
75429;SDS011;64127;51.488;5.462;2022-12-29T04:47:15;5.03;;;1.50;;
75429;SDS011;64127;51.488;5.462;2022-12-29T04:49:48;4.20;;;1.50;;
75429;SDS011;64127;51.488;5.462;2022-12-29T04:52:20;3.40;;;1.50;;
75429;SDS011;64127;51.488;5.462;2022-12-29T04:54:52;5.10;;;1.37;;
75429;SDS011;64127;51.488;5.462;2022-12-29T04:57:25;5.20;;;1.40;;
75429;SDS011;64127;51.488;5.462;2022-12-29T04:59:57;3.63;;;1.50;;
75429;SDS011;64127;51.488;5.462;2022-12-29T05:02:29;6.40;;;1.63;;
75429;SDS011;64127;51.488;5.462;2022-12-29T05:05:01;5.30;;;1.90;;
75429;SDS011;64127;51.488;5.462;2022-12-29T05:07:33;4.23;;;1.40;;
75429;SDS011;64127;51.488;5.462;2022-12-29T05:10:06;5.37;;;1.57;;
75429;SDS011;64127;51.488;5.462;2022-12-29T05:12:39;4.33;;;1.60;;
75429;SDS011;64127;51.488;5.462;2022-12-29T05:15:11;3.70;;;1.30;;
75429;SDS011;64127;51.488;5.462;2022-12-29T05:17:44;5.27;;;1.50;;
75429;SDS011;64127;51.488;5.462;2022-12-29T05:20:16;3.63;;;1.60;;
75429;SDS011;64127;51.488;5.462;2022-12-29T05:22:48;3.13;;;1.57;;
75429;SDS011;64127;51.488;5.462;2022-12-29T05:25:20;4.77;;;1.60;;
75429;SDS011;64127;51.488;5.462;2022-12-29T05:27:52;4.70;;;1.50;;
75429;SDS011;64127;51.488;5.462;2022-12-29T05:30:24;3.27;;;1.40;;
75429;SDS011;64127;51.488;5.462;2022-12-29T05:32:56;3.37;;;1.30;;
75429;SDS011;64127;51.488;5.462;2022-12-29T05:35:28;3.00;;;1.33;;
75429;SDS011;64127;51.488;5.462;2022-12-29T05:38:00;3.37;;;1.33;;
75429;SDS011;64127;51.488;5.462;2022-12-29T05:40:32;3.97;;;1.30;;
75429;SDS011;64127;51.488;5.462;2022-12-29T05:43:04;4.30;;;1.50;;
75429;SDS011;64127;51.488;5.462;2022-12-29T05:45:36;5.80;;;1.67;;
75429;SDS011;64127;51.488;5.462;2022-12-29T05:48:08;3.33;;;1.30;;
75429;SDS011;64127;51.488;5.462;2022-12-29T05:50:40;4.43;;;1.77;;
75429;SDS011;64127;51.488;5.462;2022-12-29T05:53:12;5.70;;;1.30;;
75429;SDS011;64127;51.488;5.462;2022-12-29T05:55:46;4.10;;;1.33;;
75429;SDS011;64127;51.488;5.462;2022-12-29T05:58:19;2.80;;;1.23;;
75429;SDS011;64127;51.488;5.462;2022-12-29T06:00:51;6.07;;;1.37;;
75429;SDS011;64127;51.488;5.462;2022-12-29T06:03:23;3.37;;;1.20;;
75429;SDS011;64127;51.488;5.462;2022-12-29T06:05:56;4.17;;;1.27;;
75429;SDS011;64127;51.488;5.462;2022-12-29T06:08:28;3.07;;;1.30;;
75429;SDS011;64127;51.488;5.462;2022-12-29T06:11:00;2.33;;;1.10;;
75429;SDS011;64127;51.488;5.462;2022-12-29T06:13:32;2.80;;;1.40;;
75429;SDS011;64127;51.488;5.462;2022-12-29T06:16:04;3.57;;;1.30;;
75429;SDS011;64127;51.488;5.462;2022-12-29T06:18:37;5.77;;;1.70;;
75429;SDS011;64127;51.488;5.462;2022-12-29T06:21:09;3.30;;;1.30;;
75429;SDS011;64127;51.488;5.462;2022-12-29T06:23:41;4.83;;;1.60;;
75429;SDS011;64127;51.488;5.462;2022-12-29T06:26:13;4.17;;;1.40;;
75429;SDS011;64127;51.488;5.462;2022-12-29T06:28:45;3.73;;;1.30;;
75429;SDS011;64127;51.488;5.462;2022-12-29T06:31:17;4.20;;;1.37;;
75429;SDS011;64127;51.488;5.462;2022-12-29T06:33:49;4.60;;;1.40;;
75429;SDS011;64127;51.488;5.462;2022-12-29T06:36:21;4.83;;;1.40;;
75429;SDS011;64127;51.488;5.462;2022-12-29T06:38:53;4.87;;;1.60;;
75429;SDS011;64127;51.488;5.462;2022-12-29T06:41:25;3.83;;;1.60;;
75429;SDS011;64127;51.488;5.462;2022-12-29T06:44:02;4.47;;;1.70;;
75429;SDS011;64127;51.488;5.462;2022-12-29T06:46:34;5.33;;;1.50;;
75429;SDS011;64127;51.488;5.462;2022-12-29T06:49:06;4.43;;;1.67;;
75429;SDS011;64127;51.488;5.462;2022-12-29T06:51:38;5.67;;;1.60;;
75429;SDS011;64127;51.488;5.462;2022-12-29T06:54:10;3.77;;;1.63;;
75429;SDS011;64127;51.488;5.462;2022-12-29T06:56:43;5.43;;;2.03;;
75429;SDS011;64127;51.488;5.462;2022-12-29T06:59:15;5.27;;;1.70;;
75429;SDS011;64127;51.488;5.462;2022-12-29T07:01:47;4.40;;;1.87;;
75429;SDS011;64127;51.488;5.462;2022-12-29T07:04:19;5.73;;;1.90;;
75429;SDS011;64127;51.488;5.462;2022-12-29T07:06:51;5.30;;;1.80;;
75429;SDS011;64127;51.488;5.462;2022-12-29T07:09:23;3.83;;;1.80;;
75429;SDS011;64127;51.488;5.462;2022-12-29T07:11:55;5.47;;;2.10;;
75429;SDS011;64127;51.488;5.462;2022-12-29T07:14:27;6.20;;;1.90;;
75429;SDS011;64127;51.488;5.462;2022-12-29T07:16:59;7.40;;;1.90;;
75429;SDS011;64127;51.488;5.462;2022-12-29T07:19:31;6.73;;;2.10;;
75429;SDS011;64127;51.488;5.462;2022-12-29T07:22:04;4.73;;;1.80;;
75429;SDS011;64127;51.488;5.462;2022-12-29T07:24:36;6.07;;;1.80;;
75429;SDS011;64127;51.488;5.462;2022-12-29T07:27:09;7.60;;;1.83;;
75429;SDS011;64127;51.488;5.462;2022-12-29T07:29:41;6.83;;;2.20;;
75429;SDS011;64127;51.488;5.462;2022-12-29T07:32:13;5.07;;;1.93;;
75429;SDS011;64127;51.488;5.462;2022-12-29T07:34:45;5.93;;;2.00;;
75429;SDS011;64127;51.488;5.462;2022-12-29T07:37:18;4.83;;;2.40;;
75429;SDS011;64127;51.488;5.462;2022-12-29T07:39:51;6.37;;;1.90;;
75429;SDS011;64127;51.488;5.462;2022-12-29T07:42:23;6.60;;;2.00;;
75429;SDS011;64127;51.488;5.462;2022-12-29T07:44:55;5.30;;;2.40;;
75429;SDS011;64127;51.488;5.462;2022-12-29T07:47:27;6.93;;;2.47;;
75429;SDS011;64127;51.488;5.462;2022-12-29T07:49:59;7.53;;;2.10;;
75429;SDS011;64127;51.488;5.462;2022-12-29T07:52:30;7.03;;;2.23;;
75429;SDS011;64127;51.488;5.462;2022-12-29T07:55:03;7.63;;;1.90;;
75429;SDS011;64127;51.488;5.462;2022-12-29T07:57:36;5.93;;;1.90;;
75429;SDS011;64127;51.488;5.462;2022-12-29T08:00:08;5.67;;;1.93;;
75429;SDS011;64127;51.488;5.462;2022-12-29T08:02:41;8.53;;;2.07;;
75429;SDS011;64127;51.488;5.462;2022-12-29T08:05:13;7.03;;;2.30;;
75429;SDS011;64127;51.488;5.462;2022-12-29T08:07:46;7.90;;;2.30;;
75429;SDS011;64127;51.488;5.462;2022-12-29T08:10:19;7.17;;;2.40;;
75429;SDS011;64127;51.488;5.462;2022-12-29T08:12:50;7.93;;;2.27;;
75429;SDS011;64127;51.488;5.462;2022-12-29T08:15:23;5.70;;;2.03;;
75429;SDS011;64127;51.488;5.462;2022-12-29T08:18:02;11.57;;;2.40;;
75429;SDS011;64127;51.488;5.462;2022-12-29T08:20:35;7.60;;;2.00;;
75429;SDS011;64127;51.488;5.462;2022-12-29T08:23:07;6.27;;;1.93;;
75429;SDS011;64127;51.488;5.462;2022-12-29T08:25:39;7.10;;;2.57;;
75429;SDS011;64127;51.488;5.462;2022-12-29T08:28:11;7.23;;;2.13;;
75429;SDS011;64127;51.488;5.462;2022-12-29T08:30:43;6.67;;;2.17;;
75429;SDS011;64127;51.488;5.462;2022-12-29T08:33:15;6.93;;;2.10;;
75429;SDS011;64127;51.488;5.462;2022-12-29T08:35:47;5.60;;;2.07;;
75429;SDS011;64127;51.488;5.462;2022-12-29T08:38:19;6.70;;;2.20;;
75429;SDS011;64127;51.488;5.462;2022-12-29T08:40:51;8.03;;;2.40;;
75429;SDS011;64127;51.488;5.462;2022-12-29T08:43:23;5.27;;;1.70;;
75429;SDS011;64127;51.488;5.462;2022-12-29T08:45:57;7.63;;;2.20;;
75429;SDS011;64127;51.488;5.462;2022-12-29T08:48:30;8.97;;;2.07;;
75429;SDS011;64127;51.488;5.462;2022-12-29T08:51:02;4.67;;;1.83;;
75429;SDS011;64127;51.488;5.462;2022-12-29T08:53:34;4.40;;;1.77;;
75429;SDS011;64127;51.488;5.462;2022-12-29T08:56:08;6.47;;;2.07;;
75429;SDS011;64127;51.488;5.462;2022-12-29T08:58:42;5.13;;;2.03;;
75429;SDS011;64127;51.488;5.462;2022-12-29T09:01:14;8.57;;;2.27;;
75429;SDS011;64127;51.488;5.462;2022-12-29T09:03:47;6.90;;;2.03;;
75429;SDS011;64127;51.488;5.462;2022-12-29T09:06:39;6.40;;;2.07;;
75429;SDS011;64127;51.488;5.462;2022-12-29T09:09:11;5.27;;;2.20;;
75429;SDS011;64127;51.488;5.462;2022-12-29T09:11:44;7.53;;;2.33;;
75429;SDS011;64127;51.488;5.462;2022-12-29T09:14:16;5.80;;;2.00;;
75429;SDS011;64127;51.488;5.462;2022-12-29T09:16:50;4.63;;;1.97;;
75429;SDS011;64127;51.488;5.462;2022-12-29T09:19:41;7.03;;;2.20;;
75429;SDS011;64127;51.488;5.462;2022-12-29T09:22:13;6.40;;;2.10;;
75429;SDS011;64127;51.488;5.462;2022-12-29T09:24:45;5.77;;;1.97;;
75429;SDS011;64127;51.488;5.462;2022-12-29T09:27:17;5.57;;;2.03;;
75429;SDS011;64127;51.488;5.462;2022-12-29T09:29:49;6.87;;;1.90;;
75429;SDS011;64127;51.488;5.462;2022-12-29T09:32:21;5.27;;;2.13;;
75429;SDS011;64127;51.488;5.462;2022-12-29T09:34:55;6.60;;;2.20;;
75429;SDS011;64127;51.488;5.462;2022-12-29T09:37:27;6.53;;;2.13;;
75429;SDS011;64127;51.488;5.462;2022-12-29T09:39:59;7.10;;;2.30;;
75429;SDS011;64127;51.488;5.462;2022-12-29T09:42:37;5.40;;;2.30;;
75429;SDS011;64127;51.488;5.462;2022-12-29T09:45:25;5.67;;;2.07;;
75429;SDS011;64127;51.488;5.462;2022-12-29T09:48:22;7.47;;;2.10;;
75429;SDS011;64127;51.488;5.462;2022-12-29T09:51:02;6.30;;;2.40;;
75429;SDS011;64127;51.488;5.462;2022-12-29T09:53:45;5.57;;;2.20;;
75429;SDS011;64127;51.488;5.462;2022-12-29T09:56:43;7.97;;;2.10;;
75429;SDS011;64127;51.488;5.462;2022-12-29T09:59:19;6.63;;;2.00;;
75429;SDS011;64127;51.488;5.462;2022-12-29T10:02:23;6.50;;;2.10;;
75429;SDS011;64127;51.488;5.462;2022-12-29T10:24:25;5.93;;;2.17;;
75429;SDS011;64127;51.488;5.462;2022-12-29T10:27:00;7.77;;;2.10;;
75429;SDS011;64127;51.488;5.462;2022-12-29T10:29:34;8.00;;;2.47;;
75429;SDS011;64127;51.488;5.462;2022-12-29T10:32:21;9.03;;;2.47;;
75429;SDS011;64127;51.488;5.462;2022-12-29T10:35:14;6.43;;;2.13;;
75429;SDS011;64127;51.488;5.462;2022-12-29T10:37:53;7.10;;;2.07;;
75429;SDS011;64127;51.488;5.462;2022-12-29T10:40:54;7.77;;;2.10;;
75429;SDS011;64127;51.488;5.462;2022-12-29T10:43:46;5.73;;;1.77;;
75429;SDS011;64127;51.488;5.462;2022-12-29T10:46:27;7.37;;;2.43;;
75429;SDS011;64127;51.488;5.462;2022-12-29T10:49:06;7.83;;;2.40;;
75429;SDS011;64127;51.488;5.462;2022-12-29T10:51:52;7.27;;;2.17;;
75429;SDS011;64127;51.488;5.462;2022-12-29T10:54:31;5.30;;;2.10;;
75429;SDS011;64127;51.488;5.462;2022-12-29T11:00:08;5.70;;;2.07;;
75429;SDS011;64127;51.488;5.462;2022-12-29T11:06:24;8.70;;;2.47;;
75429;SDS011;64127;51.488;5.462;2022-12-29T11:09:04;8.93;;;2.47;;
75429;SDS011;64127;51.488;5.462;2022-12-29T11:11:47;6.10;;;2.23;;
75429;SDS011;64127;51.488;5.462;2022-12-29T11:14:21;9.77;;;2.90;;
75429;SDS011;64127;51.488;5.462;2022-12-29T11:17:03;7.23;;;2.43;;
75429;SDS011;64127;51.488;5.462;2022-12-29T11:19:36;11.57;;;2.97;;
75429;SDS011;64127;51.488;5.462;2022-12-29T11:22:12;7.67;;;2.97;;
75429;SDS011;64127;51.488;5.462;2022-12-29T11:24:51;6.93;;;2.37;;
75429;SDS011;64127;51.488;5.462;2022-12-29T11:27:26;7.43;;;2.10;;
75429;SDS011;64127;51.488;5.462;2022-12-29T11:29:58;8.43;;;2.60;;
75429;SDS011;64127;51.488;5.462;2022-12-29T11:32:30;11.40;;;2.70;;
75429;SDS011;64127;51.488;5.462;2022-12-29T11:35:02;7.60;;;2.10;;
75429;SDS011;64127;51.488;5.462;2022-12-29T11:37:38;6.67;;;2.50;;
75429;SDS011;64127;51.488;5.462;2022-12-29T11:40:15;9.73;;;2.50;;
75429;SDS011;64127;51.488;5.462;2022-12-29T11:42:52;9.80;;;2.87;;
75429;SDS011;64127;51.488;5.462;2022-12-29T11:45:30;10.30;;;2.90;;
75429;SDS011;64127;51.488;5.462;2022-12-29T11:48:12;11.97;;;2.30;;
75429;SDS011;64127;51.488;5.462;2022-12-29T11:50:54;6.30;;;2.50;;
75429;SDS011;64127;51.488;5.462;2022-12-29T11:53:43;7.40;;;2.60;;
75429;SDS011;64127;51.488;5.462;2022-12-29T11:56:20;7.93;;;2.47;;
75429;SDS011;64127;51.488;5.462;2022-12-29T11:59:21;10.37;;;3.03;;
75429;SDS011;64127;51.488;5.462;2022-12-29T12:01:58;8.67;;;2.87;;
75429;SDS011;64127;51.488;5.462;2022-12-29T12:04:42;8.87;;;2.50;;
75429;SDS011;64127;51.488;5.462;2022-12-29T12:07:19;9.33;;;2.60;;
75429;SDS011;64127;51.488;5.462;2022-12-29T12:10:03;9.23;;;3.00;;
75429;SDS011;64127;51.488;5.462;2022-12-29T12:12:52;9.60;;;2.93;;
75429;SDS011;64127;51.488;5.462;2022-12-29T12:18:48;5.60;;;2.30;;
75429;SDS011;64127;51.488;5.462;2022-12-29T12:21:30;6.97;;;2.70;;
75429;SDS011;64127;51.488;5.462;2022-12-29T12:27:10;8.80;;;2.63;;
75429;SDS011;64127;51.488;5.462;2022-12-29T12:30:07;7.83;;;2.53;;
75429;SDS011;64127;51.488;5.462;2022-12-29T12:33:03;7.40;;;2.50;;
75429;SDS011;64127;51.488;5.462;2022-12-29T12:35:57;7.90;;;2.40;;
75429;SDS011;64127;51.488;5.462;2022-12-29T12:39:11;8.00;;;2.37;;
75429;SDS011;64127;51.488;5.462;2022-12-29T13:00:11;6.67;;;2.30;;
75429;SDS011;64127;51.488;5.462;2022-12-29T13:06:18;10.43;;;2.40;;
75429;SDS011;64127;51.488;5.462;2022-12-29T13:09:58;9.07;;;2.47;;
75429;SDS011;64127;51.488;5.462;2022-12-29T13:13:34;11.47;;;2.40;;
75429;SDS011;64127;51.488;5.462;2022-12-29T13:22:13;9.53;;;2.80;;
75429;SDS011;64127;51.488;5.462;2022-12-29T13:28:03;9.40;;;2.60;;
75429;SDS011;64127;51.488;5.462;2022-12-29T13:37:09;8.57;;;2.47;;
75429;SDS011;64127;51.488;5.462;2022-12-29T13:39:48;7.37;;;2.23;;
75429;SDS011;64127;51.488;5.462;2022-12-29T13:42:45;8.07;;;2.20;;
75429;SDS011;64127;51.488;5.462;2022-12-29T13:45:19;4.60;;;2.00;;
75429;SDS011;64127;51.488;5.462;2022-12-29T13:48:03;6.30;;;2.40;;
75429;SDS011;64127;51.488;5.462;2022-12-29T13:50:51;5.23;;;2.33;;
75429;SDS011;64127;51.488;5.462;2022-12-29T13:56:23;6.27;;;2.30;;
75429;SDS011;64127;51.488;5.462;2022-12-29T13:59:21;6.33;;;2.40;;
75429;SDS011;64127;51.488;5.462;2022-12-29T14:02:33;8.67;;;2.83;;
75429;SDS011;64127;51.488;5.462;2022-12-29T14:07:57;7.77;;;2.67;;
75429;SDS011;64127;51.488;5.462;2022-12-29T14:10:37;10.50;;;3.50;;
75429;SDS011;64127;51.488;5.462;2022-12-29T14:13:22;11.70;;;3.40;;
75429;SDS011;64127;51.488;5.462;2022-12-29T14:15:57;7.17;;;2.50;;
75429;SDS011;64127;51.488;5.462;2022-12-29T14:18:33;8.03;;;2.93;;
75429;SDS011;64127;51.488;5.462;2022-12-29T14:29:43;8.83;;;2.90;;
75429;SDS011;64127;51.488;5.462;2022-12-29T14:34:53;9.47;;;2.70;;
75429;SDS011;64127;51.488;5.462;2022-12-29T14:37:49;7.70;;;2.53;;
75429;SDS011;64127;51.488;5.462;2022-12-29T14:40:49;5.73;;;2.60;;
75429;SDS011;64127;51.488;5.462;2022-12-29T14:43:24;9.03;;;2.80;;
75429;SDS011;64127;51.488;5.462;2022-12-29T14:45:59;8.00;;;2.50;;
75429;SDS011;64127;51.488;5.462;2022-12-29T14:48:34;7.80;;;2.73;;
75429;SDS011;64127;51.488;5.462;2022-12-29T14:51:17;7.60;;;2.70;;
75429;SDS011;64127;51.488;5.462;2022-12-29T14:53:58;7.93;;;2.70;;
75429;SDS011;64127;51.488;5.462;2022-12-29T14:56:30;9.37;;;2.70;;
75429;SDS011;64127;51.488;5.462;2022-12-29T14:59:04;6.80;;;2.37;;
75429;SDS011;64127;51.488;5.462;2022-12-29T15:01:43;8.10;;;2.47;;
75429;SDS011;64127;51.488;5.462;2022-12-29T15:04:25;8.07;;;2.83;;
75429;SDS011;64127;51.488;5.462;2022-12-29T15:07:04;6.97;;;2.63;;
75429;SDS011;64127;51.488;5.462;2022-12-29T15:09:45;9.90;;;2.77;;
75429;SDS011;64127;51.488;5.462;2022-12-29T15:12:37;7.63;;;2.43;;
75429;SDS011;64127;51.488;5.462;2022-12-29T15:17:57;7.37;;;2.23;;
75429;SDS011;64127;51.488;5.462;2022-12-29T15:20:55;4.87;;;1.70;;
75429;SDS011;64127;51.488;5.462;2022-12-29T15:23:35;3.93;;;1.60;;
75429;SDS011;64127;51.488;5.462;2022-12-29T15:26:09;3.43;;;1.70;;
75429;SDS011;64127;51.488;5.462;2022-12-29T15:28:44;4.50;;;1.80;;
75429;SDS011;64127;51.488;5.462;2022-12-29T15:31:18;3.57;;;1.70;;
75429;SDS011;64127;51.488;5.462;2022-12-29T15:34:10;3.67;;;1.50;;
75429;SDS011;64127;51.488;5.462;2022-12-29T15:36:43;2.63;;;1.57;;
75429;SDS011;64127;51.488;5.462;2022-12-29T15:39:19;3.53;;;1.77;;
75429;SDS011;64127;51.488;5.462;2022-12-29T15:45:03;4.07;;;1.53;;
75429;SDS011;64127;51.488;5.462;2022-12-29T15:47:42;4.53;;;1.80;;
75429;SDS011;64127;51.488;5.462;2022-12-29T15:50:24;4.97;;;2.00;;
75429;SDS011;64127;51.488;5.462;2022-12-29T15:53:00;3.50;;;1.60;;
75429;SDS011;64127;51.488;5.462;2022-12-29T15:55:41;5.37;;;1.87;;
75429;SDS011;64127;51.488;5.462;2022-12-29T15:58:22;3.63;;;1.60;;
75429;SDS011;64127;51.488;5.462;2022-12-29T16:00:58;5.28;;;1.70;;
75429;SDS011;64127;51.488;5.462;2022-12-29T16:03:35;5.23;;;1.30;;
75429;SDS011;64127;51.488;5.462;2022-12-29T16:06:09;3.40;;;1.60;;
75429;SDS011;64127;51.488;5.462;2022-12-29T16:09:14;4.97;;;1.50;;
75429;SDS011;64127;51.488;5.462;2022-12-29T16:11:50;3.80;;;1.43;;
75429;SDS011;64127;51.488;5.462;2022-12-29T16:17:23;5.40;;;1.90;;
75429;SDS011;64127;51.488;5.462;2022-12-29T16:20:01;2.83;;;1.57;;
75429;SDS011;64127;51.488;5.462;2022-12-29T16:22:49;3.73;;;1.50;;
75429;SDS011;64127;51.488;5.462;2022-12-29T16:25:29;6.00;;;3.50;;
75429;SDS011;64127;51.488;5.462;2022-12-29T16:28:18;4.27;;;1.90;;
75429;SDS011;64127;51.488;5.462;2022-12-29T16:31:20;4.03;;;1.63;;
75429;SDS011;64127;51.488;5.462;2022-12-29T16:33:55;5.60;;;1.83;;
75429;SDS011;64127;51.488;5.462;2022-12-29T16:36:29;2.63;;;1.40;;
75429;SDS011;64127;51.488;5.462;2022-12-29T16:41:58;3.50;;;1.80;;
75429;SDS011;64127;51.488;5.462;2022-12-29T16:44:30;4.77;;;2.07;;
75429;SDS011;64127;51.488;5.462;2022-12-29T16:49:51;5.40;;;2.03;;
75429;SDS011;64127;51.488;5.462;2022-12-29T16:52:26;4.17;;;1.77;;
75429;SDS011;64127;51.488;5.462;2022-12-29T16:55:05;6.53;;;2.00;;
75429;SDS011;64127;51.488;5.462;2022-12-29T16:57:48;4.93;;;2.00;;
75429;SDS011;64127;51.488;5.462;2022-12-29T17:00:28;4.90;;;1.90;;
75429;SDS011;64127;51.488;5.462;2022-12-29T17:03:08;5.50;;;2.10;;
75429;SDS011;64127;51.488;5.462;2022-12-29T17:05:42;5.97;;;2.30;;
75429;SDS011;64127;51.488;5.462;2022-12-29T17:08:18;5.50;;;2.37;;
75429;SDS011;64127;51.488;5.462;2022-12-29T17:10:54;5.43;;;2.07;;
75429;SDS011;64127;51.488;5.462;2022-12-29T17:13:46;3.43;;;2.03;;
75429;SDS011;64127;51.488;5.462;2022-12-29T17:16:18;4.67;;;2.03;;
75429;SDS011;64127;51.488;5.462;2022-12-29T17:18:50;6.70;;;2.20;;
75429;SDS011;64127;51.488;5.462;2022-12-29T17:21:22;7.60;;;2.43;;
75429;SDS011;64127;51.488;5.462;2022-12-29T17:23:54;7.43;;;2.53;;
75429;SDS011;64127;51.488;5.462;2022-12-29T17:26:26;6.57;;;2.40;;
75429;SDS011;64127;51.488;5.462;2022-12-29T17:28:58;7.30;;;2.47;;
75429;SDS011;64127;51.488;5.462;2022-12-29T17:31:31;7.23;;;2.50;;
75429;SDS011;64127;51.488;5.462;2022-12-29T17:34:03;7.17;;;2.00;;
75429;SDS011;64127;51.488;5.462;2022-12-29T17:36:35;8.27;;;2.60;;
75429;SDS011;64127;51.488;5.462;2022-12-29T17:39:07;8.13;;;2.47;;
75429;SDS011;64127;51.488;5.462;2022-12-29T17:41:39;9.27;;;2.33;;
75429;SDS011;64127;51.488;5.462;2022-12-29T17:44:15;8.87;;;2.47;;
75429;SDS011;64127;51.488;5.462;2022-12-29T17:46:50;7.77;;;2.57;;
75429;SDS011;64127;51.488;5.462;2022-12-29T17:49:22;9.93;;;2.50;;
75429;SDS011;64127;51.488;5.462;2022-12-29T17:51:54;8.00;;;2.63;;
75429;SDS011;64127;51.488;5.462;2022-12-29T17:54:27;5.83;;;2.20;;
75429;SDS011;64127;51.488;5.462;2022-12-29T17:57:00;7.93;;;2.47;;
75429;SDS011;64127;51.488;5.462;2022-12-29T17:59:32;9.47;;;2.80;;
75429;SDS011;64127;51.488;5.462;2022-12-29T18:02:08;7.27;;;2.60;;
75429;SDS011;64127;51.488;5.462;2022-12-29T18:05:01;6.77;;;2.60;;
75429;SDS011;64127;51.488;5.462;2022-12-29T18:07:33;6.73;;;2.50;;
75429;SDS011;64127;51.488;5.462;2022-12-29T18:10:06;7.30;;;2.40;;